MSC Sabrina — 3FMG8 — position and weather

sailwx.info

Track history (hours):
 
Tides and Currents Weather Stations Pressure Air Temp Water Temp Dewpoint Dewpoint Depression Visibility Wind Speed Wind Dir Waves Ship Positions

MSC Sabrina

Last reported at 2017-Sep-20 19:00 UTC. Time now 2017-Sep-20 21:48 UTC.
Position N 06°06' E 001°38'.

Length 224 m; beam 32.2 m; draft 12.1 m.

Type: Ship (hazmat cat A). MMSI: 356101000.

Date/timePositionNaut miles runAvg speedWind from/ knotsBaromVisibWave heightAir tempDewpointWater temp
2017-Sep-20 19:00N 06°06' E 001°38'68 4.1
2017-Sep-20 02:38N 05°31' E 000°39'318.9
2017-Sep-20 02:29N 05°31' E 000°36'918.7
2017-Sep-20 02:00N 05°31' E 000°27'918.3
2017-Sep-20 01:30N 05°32' E 000°18'918.2
2017-Sep-20 01:00N 05°35' E 000°10'815.4
2017-Sep-20 00:30N 05°38' E 000°02'2 2.8
2017-Sep-19 23:58N 05°38' E 000°01'0 0.0
2017-Sep-19 23:28N 05°38' E 000°01'0 0.0
2017-Sep-19 22:58N 05°38' E 000°01'0 0.0
2017-Sep-19 22:28N 05°38' E 000°01'0 0.0
2017-Sep-19 21:58N 05°38' E 000°01'0 0.0
2017-Sep-19 21:28N 05°38' E 000°01'0 0.0
2017-Sep-19 20:58N 05°38' E 000°01'0 0.0
2017-Sep-19 20:28N 05°38' E 000°01'0 0.0
2017-Sep-19 19:58N 05°38' E 000°01'0 0.0
2017-Sep-19 19:28N 05°38' E 000°01'0 0.0
2017-Sep-19 18:58N 05°38' E 000°01'0 0.0
2017-Sep-19 18:28N 05°38' E 000°01'0 0.0
2017-Sep-19 17:58N 05°38' E 000°01'0 0.0
2017-Sep-19 17:28N 05°38' E 000°01'0 0.0
2017-Sep-19 16:58N 05°38' E 000°01'0 0.0
2017-Sep-19 16:28N 05°38' E 000°01'0 0.0
2017-Sep-19 15:58N 05°38' E 000°01'0 0.0
2017-Sep-19 15:28N 05°38' E 000°01'0 0.0
2017-Sep-19 14:58N 05°38' E 000°01'0 0.0
2017-Sep-19 14:28N 05°38' E 000°01'0 0.0
2017-Sep-19 13:58N 05°38' E 000°01'0 0.0
2017-Sep-19 13:28N 05°38' E 000°01'0 0.0
2017-Sep-19 12:58N 05°38' E 000°01'0 0.0
2017-Sep-19 12:28N 05°38' E 000°01'0 0.0
2017-Sep-19 11:58N 05°38' E 000°01'0 0.0
2017-Sep-19 11:31N 05°38' E 000°01'0 0.0
2017-Sep-19 10:58N 05°38' E 000°01'0 0.0
2017-Sep-19 10:31N 05°38' E 000°01'0 0.0
2017-Sep-19 09:58N 05°38' E 000°01'0 0.0
2017-Sep-19 09:28N 05°38' E 000°01'0 0.0
2017-Sep-19 09:01N 05°38' E 000°01'0 0.0
2017-Sep-19 08:28N 05°38' E 000°01'0 0.0
2017-Sep-19 07:58N 05°38' E 000°01'0 0.0
2017-Sep-19 07:28N 05°38' E 000°01'0 0.0
2017-Sep-19 06:58N 05°38' E 000°01'0 0.0
2017-Sep-19 06:28N 05°38' E 000°01'0 0.0
2017-Sep-19 05:58N 05°38' E 000°01'0 0.0
2017-Sep-19 05:28N 05°38' E 000°01'0 0.0
2017-Sep-19 04:58N 05°38' E 000°01'0 0.0
2017-Sep-19 04:28N 05°38' E 000°01'0 0.0
2017-Sep-19 03:58N 05°38' E 000°01'0 0.0
2017-Sep-19 03:31N 05°38' E 000°01'0 0.0
2017-Sep-19 02:58N 05°38' E 000°01'0 0.0
2017-Sep-19 02:28N 05°38' E 000°01'0 0.0
2017-Sep-19 01:58N 05°38' E 000°01'0 0.0
2017-Sep-19 01:28N 05°38' E 000°01'0 0.0
2017-Sep-19 00:58N 05°38' E 000°01'0 0.0
2017-Sep-19 00:31N 05°38' E 000°01'0 0.0
2017-Sep-19 00:01N 05°38' E 000°01'0 0.0
2017-Sep-18 23:28N 05°38' E 000°01'0 0.0
2017-Sep-18 23:01N 05°38' E 000°01'0 0.0
2017-Sep-18 22:28N 05°38' E 000°01'0 0.0
2017-Sep-18 21:58N 05°38' E 000°01'0 0.0
2017-Sep-18 21:28N 05°38' E 000°01'0 0.0
2017-Sep-18 20:58N 05°38' E 000°01'0 0.0
2017-Sep-18 20:28N 05°38' E 000°01'0 0.0
2017-Sep-18 19:58N 05°38' E 000°01'0 0.0
2017-Sep-18 19:28N 05°38' E 000°01'0 0.0
2017-Sep-18 18:58N 05°38' E 000°01'0 0.0
2017-Sep-18 18:28N 05°38' E 000°01'0 0.0
2017-Sep-18 17:58N 05°38' E 000°01'0 0.0
2017-Sep-18 17:28N 05°38' E 000°01'0 0.0
2017-Sep-18 17:01N 05°38' E 000°01'0 0.0
2017-Sep-18 16:28N 05°38' E 000°01'0 0.0
2017-Sep-18 15:58N 05°38' E 000°01'0 0.0
2017-Sep-18 15:28N 05°38' E 000°01'0 0.4
2017-Sep-18 15:00N 05°38' E 000°01'2 4.3
2017-Sep-18 14:31N 05°37' E 000°03'3 5.5
2017-Sep-18 14:00N 05°37' E 000°06'1 2.6
2017-Sep-18 13:30N 05°36' E 000°07'2 3.7
2017-Sep-18 13:00N 05°35' E 000°08'2 3.8
2017-Sep-18 12:30N 05°34' E 000°09'2 4.6
2017-Sep-18 12:00N 05°31' E 000°10'1 2.8
2017-Sep-18 11:30N 05°30' E 000°09'0 0.9
2017-Sep-18 11:00N 05°30' E 000°09'0 0.2
2017-Sep-18 10:30N 05°30' E 000°09'2 4.3
2017-Sep-18 10:01N 05°32' E 000°09'5 9.8
2017-Sep-18 09:30N 05°32' E 000°14'612.5
2017-Sep-18 09:01N 05°32' E 000°21'714.9
2017-Sep-18 08:31N 05°32' E 000°28'  
2017-Sep-15 22:18N 05°32' E 000°41'619.4
2017-Sep-15 22:00N 05°32' E 000°35'1019.7
2017-Sep-15 21:31N 05°32' E 000°25'1019.7
2017-Sep-15 21:01N 05°32' E 000°15'815.6
2017-Sep-15 20:31N 05°34' E 000°08'612.7
2017-Sep-15 20:00N 05°38' E 000°02'2 3.4
2017-Sep-15 19:30N 05°38' E 000°01'0 0.0
2017-Sep-15 19:00N 05°38' E 000°01'0 0.0
2017-Sep-15 18:30N 05°38' E 000°01'0 0.0
2017-Sep-15 18:00N 05°38' E 000°01'0 0.0
2017-Sep-15 17:30N 05°38' E 000°01'0 0.0
2017-Sep-15 17:00N 05°38' E 000°01'0 0.0
2017-Sep-15 16:30N 05°38' E 000°01'0 0.0
2017-Sep-15 16:00N 05°38' E 000°01'0 0.0
2017-Sep-15 15:30N 05°38' E 000°01'0 0.0
2017-Sep-15 15:00N 05°38' E 000°01'0 0.0
2017-Sep-15 14:30N 05°38' E 000°01'0 0.0
2017-Sep-15 14:00N 05°38' E 000°01'0 0.0
2017-Sep-15 13:30N 05°38' E 000°01'0 0.0
2017-Sep-15 13:00N 05°38' E 000°01'0 0.0
2017-Sep-15 12:30N 05°38' E 000°01'0 0.0
2017-Sep-15 12:00N 05°38' E 000°01'0 0.0
2017-Sep-15 11:30N 05°38' E 000°01'0 0.0
2017-Sep-15 11:00N 05°38' E 000°01'0 0.0
2017-Sep-15 10:30N 05°38' E 000°01'0 0.0
2017-Sep-15 10:00N 05°38' E 000°01'0 0.0
2017-Sep-15 09:30N 05°38' E 000°01'0 0.0
2017-Sep-15 09:00N 05°38' E 000°01'0 0.0
2017-Sep-15 08:30N 05°38' E 000°01'0 0.0
2017-Sep-15 08:00N 05°38' E 000°01'0 0.0
2017-Sep-15 07:30N 05°38' E 000°01'0 0.0
2017-Sep-15 07:00N 05°38' E 000°01'0 0.0
2017-Sep-15 06:30N 05°38' E 000°01'0 0.0
2017-Sep-15 06:00N 05°38' E 000°01'0 0.0
2017-Sep-15 05:30N 05°38' E 000°01'0 0.0
2017-Sep-15 05:00N 05°38' E 000°01'0 0.0
2017-Sep-15 04:30N 05°38' E 000°01'0 0.0
2017-Sep-15 04:00N 05°38' E 000°01'0 0.0
2017-Sep-15 03:30N 05°38' E 000°01'0 0.0
2017-Sep-15 03:00N 05°38' E 000°01'0 0.0
2017-Sep-15 02:30N 05°38' E 000°01'0 0.0
2017-Sep-15 02:00N 05°38' E 000°01'0 0.0
2017-Sep-15 01:30N 05°38' E 000°01'0 0.0
2017-Sep-15 01:00N 05°38' E 000°01'0 0.0
2017-Sep-15 00:30N 05°38' E 000°01'0 0.0
2017-Sep-15 00:00N 05°38' E 000°01'0 0.0
2017-Sep-14 23:30N 05°38' E 000°01'0 0.0
2017-Sep-14 23:00N 05°38' E 000°01'0 0.0
2017-Sep-14 22:30N 05°38' E 000°01'0 0.0
2017-Sep-14 22:00N 05°38' E 000°01'0 0.0
2017-Sep-14 21:30N 05°38' E 000°01'0 0.0
2017-Sep-14 21:00N 05°38' E 000°01'0 0.0
2017-Sep-14 20:30N 05°38' E 000°01'0 0.0
2017-Sep-14 20:00N 05°38' E 000°01'0 0.0
2017-Sep-14 19:30N 05°38' E 000°01'0 0.0
2017-Sep-14 19:00N 05°38' E 000°01'0 0.0
2017-Sep-14 18:30N 05°38' E 000°01'0 0.0
2017-Sep-14 18:00N 05°38' E 000°01'0 0.0
2017-Sep-14 17:24N 05°38' E 000°01'0 0.0
2017-Sep-14 17:00N 05°38' E 000°01'0 0.0
2017-Sep-14 16:30N 05°38' E 000°01'0 0.0
2017-Sep-14 16:00N 05°38' E 000°01'0 0.0
2017-Sep-14 15:30N 05°38' E 000°01'0 0.0
2017-Sep-14 15:00N 05°38' E 000°01'0 0.0
2017-Sep-14 14:30N 05°38' E 000°01'0 0.0
2017-Sep-14 14:00N 05°38' E 000°01'0 0.0
2017-Sep-14 13:30N 05°38' E 000°01'0 0.0
2017-Sep-14 13:00N 05°38' E 000°01'0 0.0
2017-Sep-14 12:30N 05°38' E 000°01'0 0.0
2017-Sep-14 12:00N 05°38' E 000°01'0 0.0
2017-Sep-14 11:30N 05°38' E 000°01'0 0.0
2017-Sep-14 11:00N 05°38' E 000°01'0 0.0
2017-Sep-14 10:30N 05°38' E 000°01'0 0.0
2017-Sep-14 10:00N 05°38' E 000°01'0 0.0
2017-Sep-14 09:30N 05°38' E 000°01'0 0.0
2017-Sep-14 09:00N 05°38' E 000°01'0 0.0
2017-Sep-14 08:30N 05°38' E 000°01'0 0.0
2017-Sep-14 08:00N 05°38' E 000°01'0 0.0
2017-Sep-14 07:30N 05°38' E 000°01'0 0.0
2017-Sep-14 07:00N 05°38' E 000°01'0 0.0
2017-Sep-14 06:30N 05°38' E 000°01'0 0.0
2017-Sep-14 06:00N 05°38' E 000°01'0 0.0
2017-Sep-14 05:30N 05°38' E 000°01'0 0.0
2017-Sep-14 05:00N 05°38' E 000°01'0 0.0
2017-Sep-14 04:30N 05°38' E 000°01'0 0.0
2017-Sep-14 04:00N 05°38' E 000°01'0 0.0
2017-Sep-14 03:24N 05°38' E 000°01'0 0.0
2017-Sep-14 03:00N 05°38' E 000°01'0 0.0
2017-Sep-14 02:30N 05°38' E 000°01'0 0.0
2017-Sep-14 02:00N 05°38' E 000°01'0 0.0
2017-Sep-14 01:30N 05°38' E 000°01'0 0.0
2017-Sep-14 01:00N 05°38' E 000°01'0 0.0
2017-Sep-14 00:30N 05°38' E 000°01'0 0.0
2017-Sep-14 00:00N 05°38' E 000°01'0 0.0
2017-Sep-13 23:27N 05°38' E 000°01'0 0.0
2017-Sep-13 23:00N 05°38' E 000°01'0 0.0
2017-Sep-13 22:30N 05°38' E 000°01'0 0.0
2017-Sep-13 22:00N 05°38' E 000°01'0 0.0
2017-Sep-13 21:30N 05°38' E 000°01'0 0.0
2017-Sep-13 21:00N 05°38' E 000°01'0 0.0
2017-Sep-13 20:27N 05°38' E 000°01'0 0.0
2017-Sep-13 20:00N 05°38' E 000°01'0 0.0
2017-Sep-13 19:30N 05°38' E 000°01'0 0.0
2017-Sep-13 18:54N 05°38' E 000°01'0 0.0
2017-Sep-13 18:30N 05°38' E 000°01'0 0.0
2017-Sep-13 18:00N 05°38' E 000°01'0 0.0
2017-Sep-13 17:30N 05°38' E 000°01'0 0.0
2017-Sep-13 17:00N 05°38' E 000°01'0 0.0
2017-Sep-13 16:30N 05°38' E 000°01'0 0.0
2017-Sep-13 15:57N 05°38' E 000°01'0 0.0
2017-Sep-13 15:30N 05°38' E 000°01'0 0.0
2017-Sep-13 15:00N 05°38' E 000°01'0 0.0
2017-Sep-13 14:30N 05°38' E 000°01'0 0.0
2017-Sep-13 14:00N 05°38' E 000°01'0 0.0
2017-Sep-13 13:30N 05°38' E 000°01'0 0.0
2017-Sep-13 13:00N 05°38' E 000°01'0 0.0
2017-Sep-13 12:30N 05°38' E 000°01'0 0.0
2017-Sep-13 12:00N 05°38' E 000°01'0 0.0
2017-Sep-13 11:30N 05°38' E 000°01'0 0.0
2017-Sep-13 11:00N 05°38' E 000°01'0 0.0
2017-Sep-13 10:30N 05°38' E 000°01'0 0.0
2017-Sep-13 10:00N 05°38' E 000°01'0 0.0
2017-Sep-13 09:30N 05°38' E 000°01'0 0.0
2017-Sep-13 09:00N 05°38' E 000°01'0 0.0
2017-Sep-13 08:30N 05°38' E 000°01'0 0.0
2017-Sep-13 08:00N 05°38' E 000°01'0 0.0
2017-Sep-13 07:30N 05°38' E 000°01'0 0.0
2017-Sep-13 06:57N 05°38' E 000°01'0 0.0
2017-Sep-13 06:30N 05°38' E 000°01'0 0.0
2017-Sep-13 06:00N 05°38' E 000°01'0 0.0
2017-Sep-13 05:30N 05°38' E 000°01'0 0.0
2017-Sep-13 05:00N 05°38' E 000°01'0 0.0
2017-Sep-13 04:27N 05°38' E 000°01'0 0.0
2017-Sep-13 04:00N 05°38' E 000°01'0 0.0
2017-Sep-13 03:30N 05°38' E 000°01'0 0.0
2017-Sep-13 03:00N 05°38' E 000°01'0 0.0
2017-Sep-13 02:30N 05°38' E 000°01'0 0.0
2017-Sep-13 02:00N 05°38' E 000°01'0 0.0
2017-Sep-13 01:30N 05°38' E 000°01'0 0.0
2017-Sep-13 01:00N 05°38' E 000°01'0 0.0
2017-Sep-13 00:30N 05°38' E 000°01'0 0.0
2017-Sep-13 00:00N 05°38' E 000°01'0 0.0
2017-Sep-12 23:30N 05°38' E 000°01'0 0.0
2017-Sep-12 23:00N 05°38' E 000°01'0 0.0
2017-Sep-12 22:30N 05°38' E 000°01'0 0.0
2017-Sep-12 22:00N 05°38' E 000°01'0 0.0
2017-Sep-12 21:30N 05°38' E 000°01'0 0.0
2017-Sep-12 21:00N 05°38' E 000°01'0 0.0
2017-Sep-12 20:30N 05°38' E 000°01'0 0.0
2017-Sep-12 20:00N 05°38' E 000°01'0 0.0
2017-Sep-12 19:30N 05°38' E 000°01'0 0.0
2017-Sep-12 19:00N 05°38' E 000°01'0 0.0
2017-Sep-12 18:30N 05°38' E 000°01'0 0.0
2017-Sep-12 18:00N 05°38' E 000°01'0 0.0
2017-Sep-12 17:30N 05°38' E 000°01'0 0.0
2017-Sep-12 17:00N 05°38' E 000°01'0 0.0
2017-Sep-12 16:30N 05°38' E 000°01'0 0.0
2017-Sep-12 16:00N 05°38' E 000°01'0 0.0
2017-Sep-12 15:30N 05°38' E 000°01'0 0.0
2017-Sep-12 15:00N 05°38' E 000°01'0 0.0
2017-Sep-12 14:30N 05°38' E 000°01'0 0.0
2017-Sep-12 14:00N 05°38' E 000°01'0 0.0
2017-Sep-12 13:30N 05°38' E 000°01'0 0.0
2017-Sep-12 12:57N 05°38' E 000°01'0 0.0
2017-Sep-12 12:30N 05°38' E 000°01'0 0.0
2017-Sep-12 12:00N 05°38' E 000°01'0 0.0
2017-Sep-12 11:30N 05°38' E 000°01'0 0.0
2017-Sep-12 11:00N 05°38' E 000°01'0 0.0
2017-Sep-12 10:30N 05°38' E 000°01'0 0.0
2017-Sep-12 10:00N 05°38' E 000°01'0 0.0
2017-Sep-12 09:30N 05°38' E 000°01'0 0.0
2017-Sep-12 09:00N 05°38' E 000°01'0 0.0
2017-Sep-12 08:30N 05°38' E 000°01'0 0.0
2017-Sep-12 08:00N 05°38' E 000°01'0 0.0
2017-Sep-12 07:30N 05°38' E 000°01'0 0.0
2017-Sep-12 07:00N 05°38' E 000°01'0 0.0
2017-Sep-12 06:30N 05°38' E 000°01'0 0.0
2017-Sep-12 06:00N 05°38' E 000°01'0 0.0
2017-Sep-12 05:30N 05°38' E 000°01'0 0.0
2017-Sep-12 05:00N 05°38' E 000°01'0 0.0
2017-Sep-12 04:30N 05°38' E 000°01'0 0.0
2017-Sep-12 04:00N 05°38' E 000°01'0 0.0
2017-Sep-12 03:30N 05°38' E 000°01'0 0.0
2017-Sep-12 03:00N 05°38' E 000°01'0 0.0
2017-Sep-12 02:30N 05°38' E 000°01'0 0.0
2017-Sep-12 02:00N 05°38' E 000°01'0 0.0
2017-Sep-12 01:30N 05°38' E 000°01'0 0.0
2017-Sep-12 01:00N 05°38' E 000°01'0 0.0
2017-Sep-12 00:30N 05°38' E 000°01'0 0.0
2017-Sep-12 00:00N 05°38' E 000°01'0 0.0
2017-Sep-11 23:30N 05°38' E 000°01'0 0.0
2017-Sep-11 23:00N 05°38' E 000°01'0 0.0
2017-Sep-11 22:30N 05°38' E 000°01'0 0.0
2017-Sep-11 22:00N 05°38' E 000°01'0 0.0
2017-Sep-11 21:30N 05°38' E 000°01'0 0.0
2017-Sep-11 21:00N 05°38' E 000°01'0 0.0
2017-Sep-11 20:30N 05°38' E 000°01'0 0.0
2017-Sep-11 20:00N 05°38' E 000°01'0 0.0
2017-Sep-11 19:30N 05°38' E 000°01'0 0.0
2017-Sep-11 19:00N 05°38' E 000°01'0 0.0
2017-Sep-11 18:30N 05°38' E 000°01'0 0.0
2017-Sep-11 18:00N 05°38' E 000°01'0 0.0
2017-Sep-11 17:30N 05°38' E 000°01'0 0.0
2017-Sep-11 16:54N 05°38' E 000°01'0 0.0
2017-Sep-11 16:30N 05°38' E 000°01'0 0.0
2017-Sep-11 16:00N 05°38' E 000°01'0 0.0
2017-Sep-11 15:30N 05°38' E 000°01'0 0.0
2017-Sep-11 15:00N 05°38' E 000°01'0 0.0
2017-Sep-11 14:30N 05°38' E 000°01'0 0.0
2017-Sep-11 14:00N 05°38' E 000°01'0 0.0
2017-Sep-11 13:24N 05°38' E 000°01'0 0.0
2017-Sep-11 13:00N 05°38' E 000°01'0 0.0
2017-Sep-11 12:30N 05°38' E 000°01'0 0.0
2017-Sep-11 12:00N 05°38' E 000°01'0 0.0
2017-Sep-11 11:30N 05°38' E 000°01'0 0.0
2017-Sep-11 11:00N 05°38' E 000°01'0 0.0
2017-Sep-11 10:30N 05°38' E 000°01'0 0.0
2017-Sep-11 10:00N 05°38' E 000°01'0 0.0
2017-Sep-11 09:30N 05°38' E 000°01'0 0.0
2017-Sep-11 09:00N 05°38' E 000°01'0 0.0
2017-Sep-11 08:30N 05°38' E 000°01'0 0.6
2017-Sep-11 08:00N 05°38' E 000°01'2 4.7
2017-Sep-11 07:31N 05°37' E 000°03'1 1.5
2017-Sep-11 07:00N 05°38' E 000°04'0 0.8
2017-Sep-11 06:30N 05°37' E 000°04'2 3.3
2017-Sep-11 06:00N 05°37' E 000°05'4 7.4
2017-Sep-11 05:30N 05°35' E 000°08'3 6.4
2017-Sep-11 05:00N 05°34' E 000°11'1 1.4
2017-Sep-11 04:30N 05°33' E 000°11'0 1.0
2017-Sep-11 04:00N 05°32' E 000°11'0 0.9
2017-Sep-11 03:30N 05°32' E 000°11'0 0.8
2017-Sep-11 03:00N 05°32' E 000°11'0 0.8
2017-Sep-11 02:30N 05°32' E 000°10'2 4.8
2017-Sep-11 02:00N 05°30' E 000°12'1 1.7
2017-Sep-11 01:30N 05°30' E 000°12'1 1.0
2017-Sep-11 01:00N 05°29' E 000°12'1 1.0
2017-Sep-11 00:30N 05°29' E 000°11'0 0.9
2017-Sep-11 00:00N 05°28' E 000°11'0 0.6
2017-Sep-10 23:30N 05°28' E 000°11'2 3.4
2017-Sep-10 23:00N 05°30' E 000°11'4 7.3
2017-Sep-10 22:30N 05°32' E 000°14'713.4
2017-Sep-10 22:01N 05°32' E 000°21'917.5
2017-Sep-10 21:31N 05°32' E 000°29'1017.9
2017-Sep-10 20:56N 05°32' E 000°40'818.0
2017-Sep-10 20:30N 05°32' E 000°47'1018.1
2017-Sep-10 19:58N 05°32' E 000°57'  
Track history (hours):
 
Tides and Currents Weather Stations Pressure Air Temp Water Temp Dewpoint Dewpoint Depression Visibility Wind Speed Wind Dir Waves Ship Positions

MSC Sabrina

Last reported at 2017-Sep-20 19:00 UTC. Time now 2017-Sep-20 21:48 UTC.
Position N 06°06' E 001°38'.

Length 224 m; beam 32.2 m; draft 12.1 m.

Type: Ship (hazmat cat A). MMSI: 356101000.

Date/timePositionNaut miles runAvg speedWind from/ knotsBaromVisibWave heightAir tempDewpointWater temp
2017-Sep-20 19:00N 06°06' E 001°38'68 4.1
2017-Sep-20 02:38N 05°31' E 000°39'318.9
2017-Sep-20 02:29N 05°31' E 000°36'918.7
2017-Sep-20 02:00N 05°31' E 000°27'918.3
2017-Sep-20 01:30N 05°32' E 000°18'918.2
2017-Sep-20 01:00N 05°35' E 000°10'815.4
2017-Sep-20 00:30N 05°38' E 000°02'2 2.8
2017-Sep-19 23:58N 05°38' E 000°01'0 0.0
2017-Sep-19 23:28N 05°38' E 000°01'0 0.0
2017-Sep-19 22:58N 05°38' E 000°01'0 0.0
2017-Sep-19 22:28N 05°38' E 000°01'0 0.0
2017-Sep-19 21:58N 05°38' E 000°01'0 0.0
2017-Sep-19 21:28N 05°38' E 000°01'0 0.0
2017-Sep-19 20:58N 05°38' E 000°01'0 0.0
2017-Sep-19 20:28N 05°38' E 000°01'0 0.0
2017-Sep-19 19:58N 05°38' E 000°01'0 0.0
2017-Sep-19 19:28N 05°38' E 000°01'0 0.0
2017-Sep-19 18:58N 05°38' E 000°01'0 0.0
2017-Sep-19 18:28N 05°38' E 000°01'0 0.0
2017-Sep-19 17:58N 05°38' E 000°01'0 0.0
2017-Sep-19 17:28N 05°38' E 000°01'0 0.0
2017-Sep-19 16:58N 05°38' E 000°01'0 0.0
2017-Sep-19 16:28N 05°38' E 000°01'0 0.0
2017-Sep-19 15:58N 05°38' E 000°01'0 0.0
2017-Sep-19 15:28N 05°38' E 000°01'0 0.0
2017-Sep-19 14:58N 05°38' E 000°01'0 0.0
2017-Sep-19 14:28N 05°38' E 000°01'0 0.0
2017-Sep-19 13:58N 05°38' E 000°01'0 0.0
2017-Sep-19 13:28N 05°38' E 000°01'0 0.0
2017-Sep-19 12:58N 05°38' E 000°01'0 0.0
2017-Sep-19 12:28N 05°38' E 000°01'0 0.0
2017-Sep-19 11:58N 05°38' E 000°01'0 0.0
2017-Sep-19 11:31N 05°38' E 000°01'0 0.0
2017-Sep-19 10:58N 05°38' E 000°01'0 0.0
2017-Sep-19 10:31N 05°38' E 000°01'0 0.0
2017-Sep-19 09:58N 05°38' E 000°01'0 0.0
2017-Sep-19 09:28N 05°38' E 000°01'0 0.0
2017-Sep-19 09:01N 05°38' E 000°01'0 0.0
2017-Sep-19 08:28N 05°38' E 000°01'0 0.0
2017-Sep-19 07:58N 05°38' E 000°01'0 0.0
2017-Sep-19 07:28N 05°38' E 000°01'0 0.0
2017-Sep-19 06:58N 05°38' E 000°01'0 0.0
2017-Sep-19 06:28N 05°38' E 000°01'0 0.0
2017-Sep-19 05:58N 05°38' E 000°01'0 0.0
2017-Sep-19 05:28N 05°38' E 000°01'0 0.0
2017-Sep-19 04:58N 05°38' E 000°01'0 0.0
2017-Sep-19 04:28N 05°38' E 000°01'0 0.0
2017-Sep-19 03:58N 05°38' E 000°01'0 0.0
2017-Sep-19 03:31N 05°38' E 000°01'0 0.0
2017-Sep-19 02:58N 05°38' E 000°01'0 0.0
2017-Sep-19 02:28N 05°38' E 000°01'0 0.0
2017-Sep-19 01:58N 05°38' E 000°01'0 0.0
2017-Sep-19 01:28N 05°38' E 000°01'0 0.0
2017-Sep-19 00:58N 05°38' E 000°01'0 0.0
2017-Sep-19 00:31N 05°38' E 000°01'0 0.0
2017-Sep-19 00:01N 05°38' E 000°01'0 0.0
2017-Sep-18 23:28N 05°38' E 000°01'0 0.0
2017-Sep-18 23:01N 05°38' E 000°01'0 0.0
2017-Sep-18 22:28N 05°38' E 000°01'0 0.0
2017-Sep-18 21:58N 05°38' E 000°01'0 0.0
2017-Sep-18 21:28N 05°38' E 000°01'0 0.0
2017-Sep-18 20:58N 05°38' E 000°01'0 0.0
2017-Sep-18 20:28N 05°38' E 000°01'0 0.0
2017-Sep-18 19:58N 05°38' E 000°01'0 0.0
2017-Sep-18 19:28N 05°38' E 000°01'0 0.0
2017-Sep-18 18:58N 05°38' E 000°01'0 0.0
2017-Sep-18 18:28N 05°38' E 000°01'0 0.0
2017-Sep-18 17:58N 05°38' E 000°01'0 0.0
2017-Sep-18 17:28N 05°38' E 000°01'0 0.0
2017-Sep-18 17:01N 05°38' E 000°01'0 0.0
2017-Sep-18 16:28N 05°38' E 000°01'0 0.0
2017-Sep-18 15:58N 05°38' E 000°01'0 0.0
2017-Sep-18 15:28N 05°38' E 000°01'0 0.4
2017-Sep-18 15:00N 05°38' E 000°01'2 4.3
2017-Sep-18 14:31N 05°37' E 000°03'3 5.5
2017-Sep-18 14:00N 05°37' E 000°06'1 2.6
2017-Sep-18 13:30N 05°36' E 000°07'2 3.7
2017-Sep-18 13:00N 05°35' E 000°08'2 3.8
2017-Sep-18 12:30N 05°34' E 000°09'2 4.6
2017-Sep-18 12:00N 05°31' E 000°10'1 2.8
2017-Sep-18 11:30N 05°30' E 000°09'0 0.9
2017-Sep-18 11:00N 05°30' E 000°09'0 0.2
2017-Sep-18 10:30N 05°30' E 000°09'2 4.3
2017-Sep-18 10:01N 05°32' E 000°09'5 9.8
2017-Sep-18 09:30N 05°32' E 000°14'612.5
2017-Sep-18 09:01N 05°32' E 000°21'714.9
2017-Sep-18 08:31N 05°32' E 000°28'  
2017-Sep-15 22:18N 05°32' E 000°41'619.4
2017-Sep-15 22:00N 05°32' E 000°35'1019.7
2017-Sep-15 21:31N 05°32' E 000°25'1019.7
2017-Sep-15 21:01N 05°32' E 000°15'815.6
2017-Sep-15 20:31N 05°34' E 000°08'612.7
2017-Sep-15 20:00N 05°38' E 000°02'2 3.4
2017-Sep-15 19:30N 05°38' E 000°01'0 0.0
2017-Sep-15 19:00N 05°38' E 000°01'0 0.0
2017-Sep-15 18:30N 05°38' E 000°01'0 0.0
2017-Sep-15 18:00N 05°38' E 000°01'0 0.0
2017-Sep-15 17:30N 05°38' E 000°01'0 0.0
2017-Sep-15 17:00N 05°38' E 000°01'0 0.0
2017-Sep-15 16:30N 05°38' E 000°01'0 0.0
2017-Sep-15 16:00N 05°38' E 000°01'0 0.0
2017-Sep-15 15:30N 05°38' E 000°01'0 0.0
2017-Sep-15 15:00N 05°38' E 000°01'0 0.0
2017-Sep-15 14:30N 05°38' E 000°01'0 0.0
2017-Sep-15 14:00N 05°38' E 000°01'0 0.0
2017-Sep-15 13:30N 05°38' E 000°01'0 0.0
2017-Sep-15 13:00N 05°38' E 000°01'0 0.0
2017-Sep-15 12:30N 05°38' E 000°01'0 0.0
2017-Sep-15 12:00N 05°38' E 000°01'0 0.0
2017-Sep-15 11:30N 05°38' E 000°01'0 0.0
2017-Sep-15 11:00N 05°38' E 000°01'0 0.0
2017-Sep-15 10:30N 05°38' E 000°01'0 0.0
2017-Sep-15 10:00N 05°38' E 000°01'0 0.0
2017-Sep-15 09:30N 05°38' E 000°01'0 0.0
2017-Sep-15 09:00N 05°38' E 000°01'0 0.0
2017-Sep-15 08:30N 05°38' E 000°01'0 0.0
2017-Sep-15 08:00N 05°38' E 000°01'0 0.0
2017-Sep-15 07:30N 05°38' E 000°01'0 0.0
2017-Sep-15 07:00N 05°38' E 000°01'0 0.0
2017-Sep-15 06:30N 05°38' E 000°01'0 0.0
2017-Sep-15 06:00N 05°38' E 000°01'0 0.0
2017-Sep-15 05:30N 05°38' E 000°01'0 0.0
2017-Sep-15 05:00N 05°38' E 000°01'0 0.0
2017-Sep-15 04:30N 05°38' E 000°01'0 0.0
2017-Sep-15 04:00N 05°38' E 000°01'0 0.0
2017-Sep-15 03:30N 05°38' E 000°01'0 0.0
2017-Sep-15 03:00N 05°38' E 000°01'0 0.0
2017-Sep-15 02:30N 05°38' E 000°01'0 0.0
2017-Sep-15 02:00N 05°38' E 000°01'0 0.0
2017-Sep-15 01:30N 05°38' E 000°01'0 0.0
2017-Sep-15 01:00N 05°38' E 000°01'0 0.0
2017-Sep-15 00:30N 05°38' E 000°01'0 0.0
2017-Sep-15 00:00N 05°38' E 000°01'0 0.0
2017-Sep-14 23:30N 05°38' E 000°01'0 0.0
2017-Sep-14 23:00N 05°38' E 000°01'0 0.0
2017-Sep-14 22:30N 05°38' E 000°01'0 0.0
2017-Sep-14 22:00N 05°38' E 000°01'0 0.0
2017-Sep-14 21:30N 05°38' E 000°01'0 0.0
2017-Sep-14 21:00N 05°38' E 000°01'0 0.0
2017-Sep-14 20:30N 05°38' E 000°01'0 0.0
2017-Sep-14 20:00N 05°38' E 000°01'0 0.0
2017-Sep-14 19:30N 05°38' E 000°01'0 0.0
2017-Sep-14 19:00N 05°38' E 000°01'0 0.0
2017-Sep-14 18:30N 05°38' E 000°01'0 0.0
2017-Sep-14 18:00N 05°38' E 000°01'0 0.0
2017-Sep-14 17:24N 05°38' E 000°01'0 0.0
2017-Sep-14 17:00N 05°38' E 000°01'0 0.0
2017-Sep-14 16:30N 05°38' E 000°01'0 0.0
2017-Sep-14 16:00N 05°38' E 000°01'0 0.0
2017-Sep-14 15:30N 05°38' E 000°01'0 0.0
2017-Sep-14 15:00N 05°38' E 000°01'0 0.0
2017-Sep-14 14:30N 05°38' E 000°01'0 0.0
2017-Sep-14 14:00N 05°38' E 000°01'0 0.0
2017-Sep-14 13:30N 05°38' E 000°01'0 0.0
2017-Sep-14 13:00N 05°38' E 000°01'0 0.0
2017-Sep-14 12:30N 05°38' E 000°01'0 0.0
2017-Sep-14 12:00N 05°38' E 000°01'0 0.0
2017-Sep-14 11:30N 05°38' E 000°01'0 0.0
2017-Sep-14 11:00N 05°38' E 000°01'0 0.0
2017-Sep-14 10:30N 05°38' E 000°01'0 0.0
2017-Sep-14 10:00N 05°38' E 000°01'0 0.0
2017-Sep-14 09:30N 05°38' E 000°01'0 0.0
2017-Sep-14 09:00N 05°38' E 000°01'0 0.0
2017-Sep-14 08:30N 05°38' E 000°01'0 0.0
2017-Sep-14 08:00N 05°38' E 000°01'0 0.0
2017-Sep-14 07:30N 05°38' E 000°01'0 0.0
2017-Sep-14 07:00N 05°38' E 000°01'0 0.0
2017-Sep-14 06:30N 05°38' E 000°01'0 0.0
2017-Sep-14 06:00N 05°38' E 000°01'0 0.0
2017-Sep-14 05:30N 05°38' E 000°01'0 0.0
2017-Sep-14 05:00N 05°38' E 000°01'0 0.0
2017-Sep-14 04:30N 05°38' E 000°01'0 0.0
2017-Sep-14 04:00N 05°38' E 000°01'0 0.0
2017-Sep-14 03:24N 05°38' E 000°01'0 0.0
2017-Sep-14 03:00N 05°38' E 000°01'0 0.0
2017-Sep-14 02:30N 05°38' E 000°01'0 0.0
2017-Sep-14 02:00N 05°38' E 000°01'0 0.0
2017-Sep-14 01:30N 05°38' E 000°01'0 0.0
2017-Sep-14 01:00N 05°38' E 000°01'0 0.0
2017-Sep-14 00:30N 05°38' E 000°01'0 0.0
2017-Sep-14 00:00N 05°38' E 000°01'0 0.0
2017-Sep-13 23:27N 05°38' E 000°01'0 0.0
2017-Sep-13 23:00N 05°38' E 000°01'0 0.0
2017-Sep-13 22:30N 05°38' E 000°01'0 0.0
2017-Sep-13 22:00N 05°38' E 000°01'0 0.0
2017-Sep-13 21:30N 05°38' E 000°01'0 0.0
2017-Sep-13 21:00N 05°38' E 000°01'0 0.0
2017-Sep-13 20:27N 05°38' E 000°01'0 0.0
2017-Sep-13 20:00N 05°38' E 000°01'0 0.0
2017-Sep-13 19:30N 05°38' E 000°01'0 0.0
2017-Sep-13 18:54N 05°38' E 000°01'0 0.0
2017-Sep-13 18:30N 05°38' E 000°01'0 0.0
2017-Sep-13 18:00N 05°38' E 000°01'0 0.0
2017-Sep-13 17:30N 05°38' E 000°01'0 0.0
2017-Sep-13 17:00N 05°38' E 000°01'0 0.0
2017-Sep-13 16:30N 05°38' E 000°01'0 0.0
2017-Sep-13 15:57N 05°38' E 000°01'0 0.0
2017-Sep-13 15:30N 05°38' E 000°01'0 0.0
2017-Sep-13 15:00N 05°38' E 000°01'0 0.0
2017-Sep-13 14:30N 05°38' E 000°01'0 0.0
2017-Sep-13 14:00N 05°38' E 000°01'0 0.0
2017-Sep-13 13:30N 05°38' E 000°01'0 0.0
2017-Sep-13 13:00N 05°38' E 000°01'0 0.0
2017-Sep-13 12:30N 05°38' E 000°01'0 0.0
2017-Sep-13 12:00N 05°38' E 000°01'0 0.0
2017-Sep-13 11:30N 05°38' E 000°01'0 0.0
2017-Sep-13 11:00N 05°38' E 000°01'0 0.0
2017-Sep-13 10:30N 05°38' E 000°01'0 0.0
2017-Sep-13 10:00N 05°38' E 000°01'0 0.0
2017-Sep-13 09:30N 05°38' E 000°01'0 0.0
2017-Sep-13 09:00N 05°38' E 000°01'0 0.0
2017-Sep-13 08:30N 05°38' E 000°01'0 0.0
2017-Sep-13 08:00N 05°38' E 000°01'0 0.0
2017-Sep-13 07:30N 05°38' E 000°01'0 0.0
2017-Sep-13 06:57N 05°38' E 000°01'0 0.0
2017-Sep-13 06:30N 05°38' E 000°01'0 0.0
2017-Sep-13 06:00N 05°38' E 000°01'0 0.0
2017-Sep-13 05:30N 05°38' E 000°01'0 0.0
2017-Sep-13 05:00N 05°38' E 000°01'0 0.0
2017-Sep-13 04:27N 05°38' E 000°01'0 0.0
2017-Sep-13 04:00N 05°38' E 000°01'0 0.0
2017-Sep-13 03:30N 05°38' E 000°01'0 0.0
2017-Sep-13 03:00N 05°38' E 000°01'0 0.0
2017-Sep-13 02:30N 05°38' E 000°01'0 0.0
2017-Sep-13 02:00N 05°38' E 000°01'0 0.0
2017-Sep-13 01:30N 05°38' E 000°01'0 0.0
2017-Sep-13 01:00N 05°38' E 000°01'0 0.0
2017-Sep-13 00:30N 05°38' E 000°01'0 0.0
2017-Sep-13 00:00N 05°38' E 000°01'0 0.0
2017-Sep-12 23:30N 05°38' E 000°01'0 0.0
2017-Sep-12 23:00N 05°38' E 000°01'0 0.0
2017-Sep-12 22:30N 05°38' E 000°01'0 0.0
2017-Sep-12 22:00N 05°38' E 000°01'0 0.0
2017-Sep-12 21:30N 05°38' E 000°01'0 0.0
2017-Sep-12 21:00N 05°38' E 000°01'0 0.0
2017-Sep-12 20:30N 05°38' E 000°01'0 0.0
2017-Sep-12 20:00N 05°38' E 000°01'0 0.0
2017-Sep-12 19:30N 05°38' E 000°01'0 0.0
2017-Sep-12 19:00N 05°38' E 000°01'0 0.0
2017-Sep-12 18:30N 05°38' E 000°01'0 0.0
2017-Sep-12 18:00N 05°38' E 000°01'0 0.0
2017-Sep-12 17:30N 05°38' E 000°01'0 0.0
2017-Sep-12 17:00N 05°38' E 000°01'0 0.0
2017-Sep-12 16:30N 05°38' E 000°01'0 0.0
2017-Sep-12 16:00N 05°38' E 000°01'0 0.0
2017-Sep-12 15:30N 05°38' E 000°01'0 0.0
2017-Sep-12 15:00N 05°38' E 000°01'0 0.0
2017-Sep-12 14:30N 05°38' E 000°01'0 0.0
2017-Sep-12 14:00N 05°38' E 000°01'0 0.0
2017-Sep-12 13:30N 05°38' E 000°01'0 0.0
2017-Sep-12 12:57N 05°38' E 000°01'0 0.0
2017-Sep-12 12:30N 05°38' E 000°01'0 0.0
2017-Sep-12 12:00N 05°38' E 000°01'0 0.0
2017-Sep-12 11:30N 05°38' E 000°01'0 0.0
2017-Sep-12 11:00N 05°38' E 000°01'0 0.0
2017-Sep-12 10:30N 05°38' E 000°01'0 0.0
2017-Sep-12 10:00N 05°38' E 000°01'0 0.0
2017-Sep-12 09:30N 05°38' E 000°01'0 0.0
2017-Sep-12 09:00N 05°38' E 000°01'0 0.0
2017-Sep-12 08:30N 05°38' E 000°01'0 0.0
2017-Sep-12 08:00N 05°38' E 000°01'0 0.0
2017-Sep-12 07:30N 05°38' E 000°01'0 0.0
2017-Sep-12 07:00N 05°38' E 000°01'0 0.0
2017-Sep-12 06:30N 05°38' E 000°01'0 0.0
2017-Sep-12 06:00N 05°38' E 000°01'0 0.0
2017-Sep-12 05:30N 05°38' E 000°01'0 0.0
2017-Sep-12 05:00N 05°38' E 000°01'0 0.0
2017-Sep-12 04:30N 05°38' E 000°01'0 0.0
2017-Sep-12 04:00N 05°38' E 000°01'0 0.0
2017-Sep-12 03:30N 05°38' E 000°01'0 0.0
2017-Sep-12 03:00N 05°38' E 000°01'0 0.0
2017-Sep-12 02:30N 05°38' E 000°01'0 0.0
2017-Sep-12 02:00N 05°38' E 000°01'0 0.0
2017-Sep-12 01:30N 05°38' E 000°01'0 0.0
2017-Sep-12 01:00N 05°38' E 000°01'0 0.0
2017-Sep-12 00:30N 05°38' E 000°01'0 0.0
2017-Sep-12 00:00N 05°38' E 000°01'0 0.0
2017-Sep-11 23:30N 05°38' E 000°01'0 0.0
2017-Sep-11 23:00N 05°38' E 000°01'0 0.0
2017-Sep-11 22:30N 05°38' E 000°01'0 0.0
2017-Sep-11 22:00N 05°38' E 000°01'0 0.0
2017-Sep-11 21:30N 05°38' E 000°01'0 0.0
2017-Sep-11 21:00N 05°38' E 000°01'0 0.0
2017-Sep-11 20:30N 05°38' E 000°01'0 0.0
2017-Sep-11 20:00N 05°38' E 000°01'0 0.0
2017-Sep-11 19:30N 05°38' E 000°01'0 0.0
2017-Sep-11 19:00N 05°38' E 000°01'0 0.0
2017-Sep-11 18:30N 05°38' E 000°01'0 0.0
2017-Sep-11 18:00N 05°38' E 000°01'0 0.0
2017-Sep-11 17:30N 05°38' E 000°01'0 0.0
2017-Sep-11 16:54N 05°38' E 000°01'0 0.0
2017-Sep-11 16:30N 05°38' E 000°01'0 0.0
2017-Sep-11 16:00N 05°38' E 000°01'0 0.0
2017-Sep-11 15:30N 05°38' E 000°01'0 0.0
2017-Sep-11 15:00N 05°38' E 000°01'0 0.0
2017-Sep-11 14:30N 05°38' E 000°01'0 0.0
2017-Sep-11 14:00N 05°38' E 000°01'0 0.0
2017-Sep-11 13:24N 05°38' E 000°01'0 0.0
2017-Sep-11 13:00N 05°38' E 000°01'0 0.0
2017-Sep-11 12:30N 05°38' E 000°01'0 0.0
2017-Sep-11 12:00N 05°38' E 000°01'0 0.0
2017-Sep-11 11:30N 05°38' E 000°01'0 0.0
2017-Sep-11 11:00N 05°38' E 000°01'0 0.0
2017-Sep-11 10:30N 05°38' E 000°01'0 0.0
2017-Sep-11 10:00N 05°38' E 000°01'0 0.0
2017-Sep-11 09:30N 05°38' E 000°01'0 0.0
2017-Sep-11 09:00N 05°38' E 000°01'0 0.0
2017-Sep-11 08:30N 05°38' E 000°01'0 0.6
2017-Sep-11 08:00N 05°38' E 000°01'2 4.7
2017-Sep-11 07:31N 05°37' E 000°03'1 1.5
2017-Sep-11 07:00N 05°38' E 000°04'0 0.8
2017-Sep-11 06:30N 05°37' E 000°04'2 3.3
2017-Sep-11 06:00N 05°37' E 000°05'4 7.4
2017-Sep-11 05:30N 05°35' E 000°08'3 6.4
2017-Sep-11 05:00N 05°34' E 000°11'1 1.4
2017-Sep-11 04:30N 05°33' E 000°11'0 1.0
2017-Sep-11 04:00N 05°32' E 000°11'0 0.9
2017-Sep-11 03:30N 05°32' E 000°11'0 0.8
2017-Sep-11 03:00N 05°32' E 000°11'0 0.8
2017-Sep-11 02:30N 05°32' E 000°10'2 4.8
2017-Sep-11 02:00N 05°30' E 000°12'1 1.7
2017-Sep-11 01:30N 05°30' E 000°12'1 1.0
2017-Sep-11 01:00N 05°29' E 000°12'1 1.0
2017-Sep-11 00:30N 05°29' E 000°11'0 0.9
2017-Sep-11 00:00N 05°28' E 000°11'0 0.6
2017-Sep-10 23:30N 05°28' E 000°11'2 3.4
2017-Sep-10 23:00N 05°30' E 000°11'4 7.3
2017-Sep-10 22:30N 05°32' E 000°14'713.4
2017-Sep-10 22:01N 05°32' E 000°21'917.5
2017-Sep-10 21:31N 05°32' E 000°29'1017.9
2017-Sep-10 20:56N 05°32' E 000°40'818.0
2017-Sep-10 20:30N 05°32' E 000°47'1018.1
2017-Sep-10 19:58N 05°32' E 000°57'  

Dump ship's entire track history